Sichem Hawk — 9HSE9 — position and weather

sailwx.info

Track history (hours):
 
Tides and Currents Weather Stations Pressure Air Temp Water Temp Dewpoint Dewpoint Depression Visibility Wind Speed Wind Dir Waves Ship Positions

Sichem Hawk

Last reported at 2015-Jul-29 20:33 UTC. Time now 2015-Jul-29 22:03 UTC.
Position N 37°13' E 015°19'.

Length 170 m; draft 7.2 m.

Type: Ship. MMSI: 249445000.

Date/timePositionNaut miles runAvg speedWind from/ knotsBaromVisibWave heightAir tempDewpointWater temp
2015-Jul-29 20:33N 37°13' E 015°19'8 3.8
2015-Jul-29 18:33N 37°07' E 015°24'1413.8
2015-Jul-29 17:32N 36°53' E 015°27'1515.0
2015-Jul-29 16:33N 36°38' E 015°27'1514.6
2015-Jul-29 15:33N 36°25' E 015°19'1514.9
2015-Jul-29 14:33N 36°12' E 015°10'1514.8
2015-Jul-29 13:33N 35°59' E 015°02'1514.8
2015-Jul-29 12:33N 35°45' E 014°54'1514.5
2015-Jul-29 11:34N 35°37' E 014°40'1515.0
2015-Jul-29 10:33N 35°30' E 014°23'1514.9
2015-Jul-29 09:33N 35°24' E 014°06'1414.7
2015-Jul-29 08:33N 35°18' E 013°50'1514.8
2015-Jul-29 07:33N 35°12' E 013°33'1514.9
2015-Jul-29 06:34N 35°06' E 013°17'1514.7
2015-Jul-29 05:33N 34°59' E 013°01'1514.5
2015-Jul-29 04:31N 34°52' E 012°45'1414.6
2015-Jul-29 03:32N 34°47' E 012°29'1514.9
2015-Jul-29 02:33N 34°40' E 012°12'1815.0
2015-Jul-29 01:20N 34°33' E 011°52'1214.9
2015-Jul-29 00:33N 34°28' E 011°39'1515.2
2015-Jul-28 23:33N 34°22' E 011°22'1514.9
2015-Jul-28 22:33N 34°19' E 011°05'1514.6
2015-Jul-28 21:34N 34°15' E 010°48'1514.7
2015-Jul-28 20:34N 34°12' E 010°30'1514.5
2015-Jul-28 19:34N 34°11' E 010°13'5 0.2
2015-Jul-27 20:33N 34°15' E 010°09'0 0.0
2015-Jul-27 04:27N 34°14' E 010°09'0 0.0
2015-Jul-26 23:06N 34°15' E 010°09'0 0.0
2015-Jul-26 21:21N 34°15' E 010°09'0 0.0
2015-Jul-26 20:30N 34°15' E 010°09'0 0.0
2015-Jul-26 19:33N 34°15' E 010°09'0 0.0
2015-Jul-26 18:30N 34°15' E 010°09'0 0.0
2015-Jul-26 17:33N 34°15' E 010°09'0 0.0
2015-Jul-26 16:33N 34°15' E 010°09'0 0.0
2015-Jul-26 15:33N 34°15' E 010°09'  
2015-Jul-23 09:22N 34°15' E 010°10'0 0.0
2015-Jul-22 15:31N 34°15' E 010°10'0 0.0
2015-Jul-22 14:31N 34°15' E 010°10'0 0.0
2015-Jul-22 13:31N 34°15' E 010°10'0 0.0
2015-Jul-22 12:22N 34°15' E 010°10'0 0.0
2015-Jul-22 11:31N 34°15' E 010°10'0 0.0
2015-Jul-22 10:22N 34°15' E 010°10'0 0.1
2015-Jul-22 08:24N 34°15' E 010°10'1 1.0
2015-Jul-22 07:33N 34°15' E 010°09'10 9.7
2015-Jul-22 06:34N 34°11' E 010°20'1514.8
2015-Jul-22 05:33N 34°14' E 010°37'1515.0
2015-Jul-22 04:33N 34°17' E 010°55'1915.4
2015-Jul-22 03:21N 34°22' E 011°17'1415.1
2015-Jul-22 02:26N 34°25' E 011°33'1315.1
2015-Jul-22 01:34N 34°31' E 011°47'1515.3
2015-Jul-22 00:34N 34°38' E 012°04'1514.8
2015-Jul-21 23:34N 34°45' E 012°20'1514.6
2015-Jul-21 22:33N 34°52' E 012°36'1514.7
2015-Jul-21 21:34N 34°59' E 012°52'1514.6
2015-Jul-21 20:34N 35°06' E 013°07'1514.7
2015-Jul-21 19:33N 35°12' E 013°23'1514.5
2015-Jul-21 18:33N 35°19' E 013°39'1514.6
2015-Jul-21 17:34N 35°26' E 013°55'1514.6
2015-Jul-21 16:34N 35°32' E 014°11'1514.6
2015-Jul-21 15:34N 35°39' E 014°27'1514.7
2015-Jul-21 14:34N 35°46' E 014°43'7 7.1
2015-Jul-21 13:31N 35°53' E 014°47'0 0.0
2015-Jul-21 12:31N 35°53' E 014°47'0 0.0
2015-Jul-21 11:31N 35°53' E 014°47'0 0.0
2015-Jul-21 10:31N 35°53' E 014°47'0 0.0
2015-Jul-21 09:31N 35°53' E 014°48'0 0.0
2015-Jul-21 08:31N 35°53' E 014°48'0 0.0
2015-Jul-21 07:28N 35°53' E 014°48'0 0.0
2015-Jul-21 06:31N 35°53' E 014°48'0 0.0
2015-Jul-21 05:31N 35°53' E 014°48'0 0.0
2015-Jul-21 04:31N 35°53' E 014°48'0 0.0
2015-Jul-21 03:31N 35°53' E 014°48'0 0.0
2015-Jul-21 02:31N 35°53' E 014°48'0 0.0
2015-Jul-21 01:31N 35°53' E 014°48'0 0.0
2015-Jul-21 00:31N 35°53' E 014°48'0 0.0
2015-Jul-20 23:31N 35°53' E 014°48'4 4.2
2015-Jul-20 22:33N 35°55' E 014°44'7 7.1
2015-Jul-20 21:33N 35°59' E 014°36'0 0.2
2015-Jul-20 20:33N 35°59' E 014°36'0 0.3
2015-Jul-20 19:33N 35°59' E 014°36'0 0.3
2015-Jul-20 18:33N 35°58' E 014°36'1 0.5
2015-Jul-20 17:33N 35°58' E 014°37'6 5.9
2015-Jul-20 16:33N 36°03' E 014°34'1414.4
2015-Jul-20 15:33N 36°13' E 014°20'1515.0
2015-Jul-20 14:33N 36°21' E 014°04'1515.3
2015-Jul-20 13:33N 36°30' E 013°49'1515.4
2015-Jul-20 12:33N 36°39' E 013°33'1515.2
2015-Jul-20 11:33N 36°47' E 013°18'1515.2
2015-Jul-20 10:33N 36°56' E 013°02'1515.1
2015-Jul-20 09:33N 37°04' E 012°46'1414.4
2015-Jul-20 08:33N 37°12' E 012°31'1515.0
2015-Jul-20 07:33N 37°21' E 012°16'1515.3
2015-Jul-20 06:33N 37°30' E 012°00'1515.0
2015-Jul-20 05:33N 37°38' E 011°44'1515.1
2015-Jul-20 04:33N 37°47' E 011°29'1615.3
2015-Jul-20 03:30N 37°56' E 011°12'1415.2
2015-Jul-20 02:34N 38°04' E 010°57'1515.0
2015-Jul-20 01:33N 38°12' E 010°41'1515.1
2015-Jul-20 00:33N 38°20' E 010°25'1515.0
2015-Jul-19 23:33N 38°29' E 010°10'1515.1
2015-Jul-19 22:33N 38°38' E 009°54'1515.2
2015-Jul-19 21:33N 38°46' E 009°38'1515.1
2015-Jul-19 20:33N 38°55' E 009°22'  
Track history (hours):
 
Tides and Currents Weather Stations Pressure Air Temp Water Temp Dewpoint Dewpoint Depression Visibility Wind Speed Wind Dir Waves Ship Positions

Sichem Hawk

Last reported at 2015-Jul-29 20:33 UTC. Time now 2015-Jul-29 22:03 UTC.
Position N 37°13' E 015°19'.

Length 170 m; draft 7.2 m.

Type: Ship. MMSI: 249445000.

Date/timePositionNaut miles runAvg speedWind from/ knotsBaromVisibWave heightAir tempDewpointWater temp
2015-Jul-29 20:33N 37°13' E 015°19'8 3.8
2015-Jul-29 18:33N 37°07' E 015°24'1413.8
2015-Jul-29 17:32N 36°53' E 015°27'1515.0
2015-Jul-29 16:33N 36°38' E 015°27'1514.6
2015-Jul-29 15:33N 36°25' E 015°19'1514.9
2015-Jul-29 14:33N 36°12' E 015°10'1514.8
2015-Jul-29 13:33N 35°59' E 015°02'1514.8
2015-Jul-29 12:33N 35°45' E 014°54'1514.5
2015-Jul-29 11:34N 35°37' E 014°40'1515.0
2015-Jul-29 10:33N 35°30' E 014°23'1514.9
2015-Jul-29 09:33N 35°24' E 014°06'1414.7
2015-Jul-29 08:33N 35°18' E 013°50'1514.8
2015-Jul-29 07:33N 35°12' E 013°33'1514.9
2015-Jul-29 06:34N 35°06' E 013°17'1514.7
2015-Jul-29 05:33N 34°59' E 013°01'1514.5
2015-Jul-29 04:31N 34°52' E 012°45'1414.6
2015-Jul-29 03:32N 34°47' E 012°29'1514.9
2015-Jul-29 02:33N 34°40' E 012°12'1815.0
2015-Jul-29 01:20N 34°33' E 011°52'1214.9
2015-Jul-29 00:33N 34°28' E 011°39'1515.2
2015-Jul-28 23:33N 34°22' E 011°22'1514.9
2015-Jul-28 22:33N 34°19' E 011°05'1514.6
2015-Jul-28 21:34N 34°15' E 010°48'1514.7
2015-Jul-28 20:34N 34°12' E 010°30'1514.5
2015-Jul-28 19:34N 34°11' E 010°13'5 0.2
2015-Jul-27 20:33N 34°15' E 010°09'0 0.0
2015-Jul-27 04:27N 34°14' E 010°09'0 0.0
2015-Jul-26 23:06N 34°15' E 010°09'0 0.0
2015-Jul-26 21:21N 34°15' E 010°09'0 0.0
2015-Jul-26 20:30N 34°15' E 010°09'0 0.0
2015-Jul-26 19:33N 34°15' E 010°09'0 0.0
2015-Jul-26 18:30N 34°15' E 010°09'0 0.0
2015-Jul-26 17:33N 34°15' E 010°09'0 0.0
2015-Jul-26 16:33N 34°15' E 010°09'0 0.0
2015-Jul-26 15:33N 34°15' E 010°09'  
2015-Jul-23 09:22N 34°15' E 010°10'0 0.0
2015-Jul-22 15:31N 34°15' E 010°10'0 0.0
2015-Jul-22 14:31N 34°15' E 010°10'0 0.0
2015-Jul-22 13:31N 34°15' E 010°10'0 0.0
2015-Jul-22 12:22N 34°15' E 010°10'0 0.0
2015-Jul-22 11:31N 34°15' E 010°10'0 0.0
2015-Jul-22 10:22N 34°15' E 010°10'0 0.1
2015-Jul-22 08:24N 34°15' E 010°10'1 1.0
2015-Jul-22 07:33N 34°15' E 010°09'10 9.7
2015-Jul-22 06:34N 34°11' E 010°20'1514.8
2015-Jul-22 05:33N 34°14' E 010°37'1515.0
2015-Jul-22 04:33N 34°17' E 010°55'1915.4
2015-Jul-22 03:21N 34°22' E 011°17'1415.1
2015-Jul-22 02:26N 34°25' E 011°33'1315.1
2015-Jul-22 01:34N 34°31' E 011°47'1515.3
2015-Jul-22 00:34N 34°38' E 012°04'1514.8
2015-Jul-21 23:34N 34°45' E 012°20'1514.6
2015-Jul-21 22:33N 34°52' E 012°36'1514.7
2015-Jul-21 21:34N 34°59' E 012°52'1514.6
2015-Jul-21 20:34N 35°06' E 013°07'1514.7
2015-Jul-21 19:33N 35°12' E 013°23'1514.5
2015-Jul-21 18:33N 35°19' E 013°39'1514.6
2015-Jul-21 17:34N 35°26' E 013°55'1514.6
2015-Jul-21 16:34N 35°32' E 014°11'1514.6
2015-Jul-21 15:34N 35°39' E 014°27'1514.7
2015-Jul-21 14:34N 35°46' E 014°43'7 7.1
2015-Jul-21 13:31N 35°53' E 014°47'0 0.0
2015-Jul-21 12:31N 35°53' E 014°47'0 0.0
2015-Jul-21 11:31N 35°53' E 014°47'0 0.0
2015-Jul-21 10:31N 35°53' E 014°47'0 0.0
2015-Jul-21 09:31N 35°53' E 014°48'0 0.0
2015-Jul-21 08:31N 35°53' E 014°48'0 0.0
2015-Jul-21 07:28N 35°53' E 014°48'0 0.0
2015-Jul-21 06:31N 35°53' E 014°48'0 0.0
2015-Jul-21 05:31N 35°53' E 014°48'0 0.0
2015-Jul-21 04:31N 35°53' E 014°48'0 0.0
2015-Jul-21 03:31N 35°53' E 014°48'0 0.0
2015-Jul-21 02:31N 35°53' E 014°48'0 0.0
2015-Jul-21 01:31N 35°53' E 014°48'0 0.0
2015-Jul-21 00:31N 35°53' E 014°48'0 0.0
2015-Jul-20 23:31N 35°53' E 014°48'4 4.2
2015-Jul-20 22:33N 35°55' E 014°44'7 7.1
2015-Jul-20 21:33N 35°59' E 014°36'0 0.2
2015-Jul-20 20:33N 35°59' E 014°36'0 0.3
2015-Jul-20 19:33N 35°59' E 014°36'0 0.3
2015-Jul-20 18:33N 35°58' E 014°36'1 0.5
2015-Jul-20 17:33N 35°58' E 014°37'6 5.9
2015-Jul-20 16:33N 36°03' E 014°34'1414.4
2015-Jul-20 15:33N 36°13' E 014°20'1515.0
2015-Jul-20 14:33N 36°21' E 014°04'1515.3
2015-Jul-20 13:33N 36°30' E 013°49'1515.4
2015-Jul-20 12:33N 36°39' E 013°33'1515.2
2015-Jul-20 11:33N 36°47' E 013°18'1515.2
2015-Jul-20 10:33N 36°56' E 013°02'1515.1
2015-Jul-20 09:33N 37°04' E 012°46'1414.4
2015-Jul-20 08:33N 37°12' E 012°31'1515.0
2015-Jul-20 07:33N 37°21' E 012°16'1515.3
2015-Jul-20 06:33N 37°30' E 012°00'1515.0
2015-Jul-20 05:33N 37°38' E 011°44'1515.1
2015-Jul-20 04:33N 37°47' E 011°29'1615.3
2015-Jul-20 03:30N 37°56' E 011°12'1415.2
2015-Jul-20 02:34N 38°04' E 010°57'1515.0
2015-Jul-20 01:33N 38°12' E 010°41'1515.1
2015-Jul-20 00:33N 38°20' E 010°25'1515.0
2015-Jul-19 23:33N 38°29' E 010°10'1515.1
2015-Jul-19 22:33N 38°38' E 009°54'1515.2
2015-Jul-19 21:33N 38°46' E 009°38'1515.1
2015-Jul-19 20:33N 38°55' E 009°22'  

Dump ship's entire track history